Time;durP1;ratioP1;P1;durP2;ratioP2;P2;SDS_P1;SDS_P2;PMS_P1;PMS_P2;Temp;Humidity;BMP_temperature;BMP_pressure;BME280_temperature;BME280_humidity;BME280_pressure;Samples;Min_cycle;Max_cycle;Signal;HPM_P1;HPM_P2
2022/08/13 00:01:16;;;;;;;4.30;3.90;;;22.90;66.80;;;;;;6260507;22;20140;-88
2022/08/13 00:03:42;;;;;;;4.18;3.78;;;22.90;66.70;;;;;;6233136;22;20144;-88
2022/08/13 00:06:10;;;;;;;4.38;3.97;;;22.90;66.70;;;;;;6233259;22;20172;-88
2022/08/13 00:08:38;;;;;;;4.40;4.00;;;22.90;66.80;;;;;;6233318;22;20174;-88
2022/08/13 00:11:05;;;;;;;4.30;3.90;;;22.90;66.80;;;;;;6232428;22;20144;-88
2022/08/13 00:13:31;;;;;;;4.55;4.15;;;22.90;66.80;;;;;;6257837;22;20567;-88
2022/08/13 00:15:59;;;;;;;3.83;3.47;;;22.90;66.80;;;;;;6232755;22;20160;-87
2022/08/13 00:18:25;;;;;;;4.22;3.83;;;22.90;66.80;;;;;;6258860;22;20174;-87
2022/08/13 00:20:53;;;;;;;4.70;4.30;;;22.90;66.80;;;;;;6221282;23;20153;-88
2022/08/13 00:23:25;;;;;;;4.28;3.88;;;22.90;66.90;;;;;;6245553;23;20280;-87
2022/08/13 00:25:56;;;;;;;4.15;3.75;;;22.90;66.90;;;;;;6245903;23;20181;-88
2022/08/13 00:28:24;;;;;;;4.65;4.25;;;22.90;66.90;;;;;;6245827;23;20481;-88
2022/08/13 00:30:52;;;;;;;4.38;3.97;;;22.90;66.90;;;;;;6245949;23;20232;-88
2022/08/13 00:33:20;;;;;;;4.25;3.85;;;22.80;67.00;;;;;;6246165;23;20126;-88
2022/08/13 00:35:51;;;;;;;4.38;3.97;;;22.80;66.90;;;;;;6245984;23;20153;-88
2022/08/13 00:38:20;;;;;;;4.88;4.32;;;22.90;67.00;;;;;;6245352;23;20145;-88
2022/08/13 00:40:51;;;;;;;4.78;4.05;;;22.90;67.80;;;;;;6245765;23;20152;-87
2022/08/13 00:43:21;;;;;;;4.20;3.80;;;22.90;67.00;;;;;;6155283;23;20155;-88
2022/08/13 00:45:49;;;;;;;4.50;4.10;;;22.80;66.90;;;;;;6155359;23;20187;-88
2022/08/13 00:50:56;;;;;;;4.45;4.05;;;22.90;66.90;;;;;;6185232;23;20142;-88
2022/08/13 00:53:23;;;;;;;4.80;4.18;;;22.80;67.80;;;;;;6167634;23;20182;-88
2022/08/13 00:55:53;;;;;;;4.30;3.90;;;22.80;67.00;;;;;;6102624;23;20155;-87
2022/08/13 00:58:22;;;;;;;4.32;3.80;;;22.90;67.00;;;;;;6073123;23;20168;-87
2022/08/13 01:00:52;;;;;;;4.25;3.85;;;22.80;67.00;;;;;;6074084;23;20192;-87
2022/08/13 01:03:18;;;;;;;3.95;3.58;;;22.80;67.00;;;;;;5987687;23;20159;-88
2022/08/13 01:05:47;;;;;;;4.60;4.20;;;22.80;67.00;;;;;;5987827;23;20194;-87
2022/08/13 01:08:16;;;;;;;4.07;3.67;;;22.80;67.00;;;;;;6010813;23;20214;-87
2022/08/13 01:10:45;;;;;;;4.57;4.18;;;22.80;67.00;;;;;;5987723;23;20151;-88
2022/08/13 01:13:13;;;;;;;4.50;4.10;;;22.80;67.00;;;;;;5990635;23;20154;-88
2022/08/13 01:15:40;;;;;;;4.38;3.97;;;22.80;67.00;;;;;;6044670;23;20164;-88
2022/08/13 01:18:17;;;;;;;4.55;4.15;;;22.80;67.00;;;;;;6067958;23;20157;-87
2022/08/13 01:20:46;;;;;;;4.28;3.88;;;22.80;67.10;;;;;;6044781;23;20239;-87
2022/08/13 01:23:13;;;;;;;4.30;3.90;;;22.80;67.20;;;;;;6043930;23;20153;-88
2022/08/13 01:25:39;;;;;;;4.30;3.90;;;22.80;67.20;;;;;;6070075;23;20185;-88
2022/08/13 01:28:05;;;;;;;4.78;4.28;;;22.80;67.10;;;;;;6077560;23;20210;-87
2022/08/13 01:30:34;;;;;;;4.13;3.72;;;22.80;67.20;;;;;;6126275;23;20171;-88
2022/08/13 01:33:02;;;;;;;4.50;4.10;;;22.80;67.20;;;;;;6079139;23;20176;-88
2022/08/13 01:35:29;;;;;;;4.05;3.67;;;22.80;67.20;;;;;;6119169;23;20230;-88
2022/08/13 01:37:57;;;;;;;4.85;4.20;;;22.80;67.20;;;;;;6136077;23;20158;-88
2022/08/13 01:40:24;;;;;;;4.03;3.63;;;22.80;67.20;;;;;;6136312;23;20209;-87
2022/08/13 01:42:53;;;;;;;4.28;3.88;;;22.80;67.20;;;;;;6161119;23;20201;-88
2022/08/13 01:45:22;;;;;;;4.03;3.60;;;22.80;67.30;;;;;;6112617;23;20205;-88
2022/08/13 01:50:39;;;;;;;4.40;4.00;;;22.80;67.30;;;;;;6165416;23;20592;-88
2022/08/13 01:53:11;;;;;;;4.43;4.03;;;22.80;67.30;;;;;;6160480;23;20185;-88
2022/08/13 01:55:40;;;;;;;4.32;3.92;;;22.80;67.30;;;;;;6137111;23;20285;-87
2022/08/13 01:58:10;;;;;;;4.25;3.85;;;22.80;67.30;;;;;;6136338;23;20158;-88
2022/08/13 02:00:37;;;;;;;4.15;3.75;;;22.80;67.40;;;;;;6160720;23;20163;-87
2022/08/13 02:03:09;;;;;;;4.35;3.80;;;22.80;67.40;;;;;;6077802;23;20214;-87
2022/08/13 02:05:38;;;;;;;4.53;4.13;;;22.80;67.40;;;;;;6092459;23;20268;-88
2022/08/13 02:08:07;;;;;;;4.10;3.70;;;22.70;67.40;;;;;;6107359;23;20152;-88
2022/08/13 02:10:33;;;;;;;4.40;4.00;;;22.70;67.40;;;;;;6131040;23;20152;-88
2022/08/13 02:12:59;;;;;;;4.38;3.97;;;22.70;67.40;;;;;;6131549;23;20147;-88
2022/08/13 02:15:27;;;;;;;4.20;3.80;;;22.80;67.40;;;;;;6130635;23;20162;-87
2022/08/13 02:17:56;;;;;;;4.13;3.72;;;22.70;67.40;;;;;;6101989;23;20159;-88
2022/08/13 02:20:26;;;;;;;4.30;3.90;;;22.70;67.40;;;;;;6101307;23;20156;-88
2022/08/13 02:22:56;;;;;;;4.65;4.22;;;22.80;67.40;;;;;;6103956;23;20167;-87
2022/08/13 02:25:25;;;;;;;4.15;3.83;;;22.70;67.40;;;;;;6103114;23;20656;-88
2022/08/13 02:27:55;;;;;;;4.38;3.97;;;22.70;67.40;;;;;;6103539;23;20635;-87
2022/08/13 02:30:24;;;;;;;4.45;4.05;;;22.70;67.40;;;;;;6103750;23;20195;-88
2022/08/13 02:32:58;;;;;;;4.30;3.90;;;22.70;67.40;;;;;;6103260;23;20148;-87
2022/08/13 02:35:24;;;;;;;4.63;4.22;;;22.70;67.40;;;;;;6103480;23;20147;-88
2022/08/13 02:37:50;;;;;;;4.43;4.03;;;22.70;67.40;;;;;;6103575;23;20152;-88
2022/08/13 02:42:59;;;;;;;4.78;4.03;;;22.70;67.40;;;;;;6144735;23;20154;-88
2022/08/13 02:45:26;;;;;;;4.30;3.90;;;22.70;67.50;;;;;;6138034;23;20581;-88
2022/08/13 02:47:57;;;;;;;4.32;3.92;;;22.70;67.50;;;;;;6148319;22;20135;-87
2022/08/13 02:50:24;;;;;;;4.82;4.22;;;22.70;67.50;;;;;;6204205;22;20168;-88
2022/08/13 02:53:01;;;;;;;4.30;3.90;;;22.70;67.60;;;;;;6192773;23;20196;-88
2022/08/13 02:55:29;;;;;;;4.32;3.92;;;22.70;67.60;;;;;;6170849;23;20241;-88
2022/08/13 02:57:54;;;;;;;4.60;4.20;;;22.70;67.60;;;;;;6168283;23;20632;-87
2022/08/13 03:00:24;;;;;;;4.30;3.90;;;22.70;67.50;;;;;;6167218;23;20142;-88
2022/08/13 03:02:50;;;;;;;4.18;3.78;;;22.70;67.60;;;;;;6143081;23;20173;-88
2022/08/13 03:05:19;;;;;;;4.15;3.75;;;22.70;67.50;;;;;;6108436;23;20291;-88
2022/08/13 03:07:47;;;;;;;4.40;4.00;;;22.70;67.50;;;;;;6157295;23;20622;-88
2022/08/13 03:10:16;;;;;;;4.97;4.25;;;22.70;67.50;;;;;;6132571;23;20163;-87
2022/08/13 03:12:45;;;;;;;4.30;3.90;;;22.70;67.50;;;;;;6157025;23;20155;-88
2022/08/13 03:15:12;;;;;;;4.75;4.22;;;22.70;67.60;;;;;;6132618;23;20160;-88
2022/08/13 03:17:40;;;;;;;4.40;4.00;;;22.70;67.60;;;;;;6132472;23;20603;-88
2022/08/13 03:20:15;;;;;;;4.25;3.85;;;22.70;67.60;;;;;;6132921;23;20170;-88
2022/08/13 03:22:57;;;;;;;4.47;4.07;;;22.70;67.50;;;;;;6134184;23;20147;-88
2022/08/13 03:25:29;;;;;;;4.40;4.00;;;22.70;67.60;;;;;;6189122;23;20263;-88
2022/08/13 03:27:55;;;;;;;4.00;3.70;;;22.60;67.50;;;;;;6144184;23;20177;-88
2022/08/13 03:30:22;;;;;;;4.10;3.70;;;22.70;67.60;;;;;;6167215;23;20157;-88
2022/08/13 03:32:49;;;;;;;4.45;4.05;;;22.60;67.50;;;;;;6137460;23;20150;-88
2022/08/13 03:35:17;;;;;;;4.35;3.95;;;22.70;67.60;;;;;;6084047;23;20163;-87
2022/08/13 03:37:51;;;;;;;4.22;3.83;;;22.70;67.60;;;;;;6162701;23;20424;-88
2022/08/13 03:40:18;;;;;;;4.57;4.13;;;22.70;68.50;;;;;;6163425;23;20166;-88
2022/08/13 03:43:10;;;;;;;4.25;3.85;;;22.60;67.50;;;;;;6162212;23;20162;-88
2022/08/13 03:45:48;;;;;;;4.22;3.83;;;22.60;67.60;;;;;;6138251;23;20498;-89
2022/08/13 03:48:15;;;;;;;4.07;3.67;;;22.70;67.70;;;;;;6140325;23;20150;-89
2022/08/13 03:50:44;;;;;;;4.40;4.00;;;22.60;67.60;;;;;;6162702;23;20277;-88
2022/08/13 03:53:11;;;;;;;4.10;3.70;;;22.60;67.60;;;;;;6133238;23;20158;-88
2022/08/13 03:55:39;;;;;;;4.40;4.00;;;22.70;67.70;;;;;;6132979;23;20666;-88
2022/08/13 03:58:06;;;;;;;4.50;3.90;;;22.60;67.60;;;;;;6133012;23;20214;-88
2022/08/13 04:00:37;;;;;;;4.03;3.63;;;22.60;67.60;;;;;;6133132;23;20619;-88
2022/08/13 04:03:17;;;;;;;4.28;3.85;;;22.60;67.60;;;;;;6139515;23;20163;-88
2022/08/13 04:05:46;;;;;;;4.40;4.00;;;22.60;67.60;;;;;;6165064;22;20306;-88
2022/08/13 04:08:15;;;;;;;4.38;3.95;;;22.60;67.60;;;;;;6203869;22;20159;-88
2022/08/13 04:10:42;;;;;;;4.70;4.20;;;22.60;67.60;;;;;;6162218;23;20147;-89
2022/08/13 04:13:12;;;;;;;4.55;3.80;;;22.70;67.70;;;;;;6112847;23;20312;-88
2022/08/13 04:15:46;;;;;;;4.30;3.90;;;22.70;67.70;;;;;;6112796;23;20237;-88
2022/08/13 04:18:13;;;;;;;4.03;3.63;;;22.60;67.60;;;;;;6114940;23;20180;-88
2022/08/13 04:20:41;;;;;;;4.32;3.83;;;22.60;67.60;;;;;;6137967;23;20158;-88
2022/08/13 04:23:18;;;;;;;4.30;3.90;;;22.60;67.60;;;;;;6115465;23;20154;-88
2022/08/13 04:25:47;;;;;;;4.10;3.70;;;22.60;67.60;;;;;;6137833;23;20225;-88
2022/08/13 04:28:14;;;;;;;4.25;3.85;;;22.70;67.70;;;;;;6114705;23;20155;-88
2022/08/13 04:30:43;;;;;;;4.22;3.83;;;22.60;67.60;;;;;;6136918;23;20553;-88
2022/08/13 04:33:14;;;;;;;4.20;3.80;;;22.70;67.70;;;;;;6127544;23;20623;-88
2022/08/13 04:35:46;;;;;;;4.22;3.83;;;22.60;67.50;;;;;;6127864;23;20268;-88
2022/08/13 04:38:16;;;;;;;4.10;3.70;;;22.60;67.50;;;;;;6127253;23;20161;-89
2022/08/13 04:40:45;;;;;;;4.00;3.70;;;22.60;67.60;;;;;;6130431;23;20152;-89
2022/08/13 04:43:15;;;;;;;4.50;3.80;;;22.60;67.60;;;;;;6132651;23;20158;-88
2022/08/13 04:45:45;;;;;;;4.65;4.15;;;22.60;67.60;;;;;;6092614;23;20189;-89
2022/08/13 04:48:13;;;;;;;4.35;3.95;;;22.60;67.60;;;;;;6093649;23;20240;-88
2022/08/13 04:50:42;;;;;;;4.53;4.13;;;22.60;67.70;;;;;;6092898;23;20158;-88
2022/08/13 04:53:19;;;;;;;4.03;3.63;;;22.60;67.70;;;;;;6093010;23;20149;-88
2022/08/13 04:55:48;;;;;;;4.45;4.05;;;22.60;67.70;;;;;;6101968;23;20523;-88
2022/08/13 04:58:15;;;;;;;4.88;4.00;;;22.60;67.70;;;;;;6131903;23;20622;-87
2022/08/13 05:00:44;;;;;;;4.50;4.10;;;22.60;67.60;;;;;;6132368;23;20155;-88
2022/08/13 05:03:16;;;;;;;4.22;3.83;;;22.60;67.60;;;;;;6138168;23;20147;-89
2022/08/13 05:05:49;;;;;;;4.38;3.97;;;22.60;67.70;;;;;;6191204;23;20209;-89
2022/08/13 05:08:15;;;;;;;4.20;3.80;;;22.50;67.60;;;;;;6191142;23;20145;-88
2022/08/13 05:10:42;;;;;;;4.70;4.20;;;22.60;67.60;;;;;;6190814;23;20504;-89
2022/08/13 05:13:24;;;;;;;4.63;3.97;;;22.60;67.70;;;;;;6126669;23;20152;-88
2022/08/13 05:15:54;;;;;;;4.38;3.83;;;22.60;67.50;;;;;;6140755;23;20154;-89
2022/08/13 05:18:20;;;;;;;4.20;3.80;;;22.70;67.60;;;;;;6186194;23;20154;-89
2022/08/13 05:20:50;;;;;;;4.30;3.90;;;22.70;67.50;;;;;;6161440;23;20162;-89
2022/08/13 05:23:21;;;;;;;4.18;3.78;;;22.70;67.50;;;;;;6160756;23;20242;-89
2022/08/13 05:25:48;;;;;;;4.20;3.80;;;22.60;67.40;;;;;;6160275;23;20495;-89
2022/08/13 05:28:17;;;;;;;4.35;3.78;;;22.70;67.40;;;;;;6125652;23;20319;-88
2022/08/13 05:30:47;;;;;;;4.30;3.90;;;22.70;67.30;;;;;;6125601;23;20412;-88
2022/08/13 05:33:15;;;;;;;4.28;3.88;;;22.70;67.50;;;;;;6101304;23;20155;-88
2022/08/13 05:35:47;;;;;;;4.38;3.97;;;22.70;67.40;;;;;;6100943;23;20179;-89
2022/08/13 05:38:14;;;;;;;4.40;4.00;;;22.70;67.50;;;;;;6125625;23;20241;-89
2022/08/13 05:40:43;;;;;;;4.20;3.80;;;22.70;67.60;;;;;;6125127;23;20234;-89
2022/08/13 05:43:11;;;;;;;4.07;3.70;;;22.70;67.50;;;;;;6133777;23;20231;-89
2022/08/13 05:45:37;;;;;;;4.63;4.22;;;22.70;67.50;;;;;;6164400;23;20621;-89
2022/08/13 05:48:05;;;;;;;4.30;3.80;;;22.70;67.40;;;;;;6165069;23;20240;-88
2022/08/13 05:50:34;;;;;;;4.22;3.83;;;22.70;67.40;;;;;;6189303;23;20134;-88
2022/08/13 05:53:07;;;;;;;4.32;3.92;;;22.70;67.40;;;;;;6164719;23;20161;-88
2022/08/13 05:55:37;;;;;;;4.68;4.25;;;22.70;67.40;;;;;;6140218;23;20150;-89
2022/08/13 05:58:04;;;;;;;4.30;3.90;;;22.70;67.30;;;;;;6165932;23;20820;-89
2022/08/13 06:05:53;;;;;;;4.68;4.28;;;22.80;66.80;;;;;;6222409;23;20255;-88
2022/08/13 06:08:27;;;;;;;4.68;3.88;;;22.80;66.80;;;;;;6194685;23;20152;-88
2022/08/13 06:10:57;;;;;;;4.90;3.78;;;22.80;66.70;;;;;;6195198;23;20637;-88
2022/08/13 06:13:23;;;;;;;4.13;3.70;;;22.80;66.70;;;;;;6194000;23;20649;-88
2022/08/13 06:15:58;;;;;;;4.40;3.55;;;22.80;66.70;;;;;;6194300;23;20256;-88
2022/08/13 06:18:29;;;;;;;4.43;4.03;;;22.90;66.60;;;;;;6235473;22;20162;-88
2022/08/13 06:20:59;;;;;;;3.85;3.55;;;22.90;66.50;;;;;;6231555;22;20154;-88
2022/08/13 06:23:27;;;;;;;4.07;3.67;;;22.90;66.30;;;;;;6255663;22;20148;-88
2022/08/13 06:25:54;;;;;;;4.20;3.80;;;22.90;66.40;;;;;;6230175;22;20180;-88
2022/08/13 06:28:25;;;;;;;4.40;3.95;;;22.90;66.40;;;;;;6230788;22;20141;-88
2022/08/13 06:30:53;;;;;;;4.50;4.05;;;22.90;66.40;;;;;;6231635;22;20133;-88
2022/08/13 06:33:21;;;;;;;3.85;3.55;;;22.90;66.40;;;;;;6256254;22;20135;-88
2022/08/13 06:35:56;;;;;;;4.30;3.90;;;23.00;66.40;;;;;;6231565;22;20179;-88
2022/08/13 06:38:25;;;;;;;4.35;3.85;;;23.00;66.30;;;;;;6256086;22;20152;-88
2022/08/13 06:40:51;;;;;;;4.45;3.90;;;23.00;66.40;;;;;;6257362;22;20133;-88
2022/08/13 06:43:18;;;;;;;4.22;3.83;;;23.00;66.40;;;;;;6229339;22;20156;-88
2022/08/13 06:45:46;;;;;;;4.28;3.88;;;23.00;66.40;;;;;;6231981;22;20254;-88
2022/08/13 06:48:18;;;;;;;4.22;3.83;;;23.00;66.40;;;;;;6189679;23;20153;-89
2022/08/13 06:50:45;;;;;;;5.00;4.25;;;23.00;66.40;;;;;;6164801;23;20146;-88
2022/08/13 06:53:17;;;;;;;4.40;3.88;;;23.00;66.30;;;;;;6140349;23;20233;-89
2022/08/13 06:55:44;;;;;;;4.25;3.85;;;23.00;66.00;;;;;;6154868;23;20607;-89
2022/08/13 06:58:13;;;;;;;4.70;4.20;;;23.00;66.00;;;;;;6106381;23;20155;-88
2022/08/13 07:00:42;;;;;;;4.50;4.10;;;23.00;66.10;;;;;;6107255;23;20159;-88
2022/08/13 07:03:16;;;;;;;4.50;4.10;;;23.10;66.00;;;;;;6129905;23;20160;-88
2022/08/13 07:05:43;;;;;;;4.20;3.85;;;23.10;66.00;;;;;;6130491;23;20637;-88
2022/08/13 07:08:15;;;;;;;4.20;3.80;;;23.10;65.90;;;;;;6130947;23;20151;-88
2022/08/13 07:10:44;;;;;;;4.38;3.97;;;23.10;65.80;;;;;;6107145;23;20514;-88
2022/08/13 07:13:11;;;;;;;4.22;3.83;;;23.10;66.10;;;;;;6132616;23;20199;-89
2022/08/13 07:15:38;;;;;;;4.10;3.72;;;23.10;66.40;;;;;;6107266;23;20162;-89
2022/08/13 07:18:05;;;;;;;4.22;3.83;;;23.10;66.40;;;;;;6110685;23;20499;-88
2022/08/13 07:20:33;;;;;;;4.28;3.88;;;23.20;66.20;;;;;;6195650;23;20157;-89
2022/08/13 07:23:00;;;;;;;3.95;3.58;;;23.10;66.30;;;;;;6196680;23;20180;-88
2022/08/13 07:25:27;;;;;;;4.40;4.00;;;23.10;66.50;;;;;;6195720;23;20193;-88
2022/08/13 07:27:54;;;;;;;3.95;3.58;;;23.10;66.50;;;;;;6196673;23;20204;-89
2022/08/13 07:30:23;;;;;;;4.20;3.80;;;23.10;66.50;;;;;;6196538;23;20212;-88
2022/08/13 07:32:51;;;;;;;3.92;3.53;;;23.20;66.50;;;;;;6221246;23;20225;-88
2022/08/13 07:35:19;;;;;;;4.10;3.70;;;23.10;66.50;;;;;;6227827;22;20148;-88
2022/08/13 07:37:46;;;;;;;4.43;3.90;;;23.10;66.60;;;;;;6279962;22;20140;-89
2022/08/13 07:40:12;;;;;;;4.00;3.60;;;23.30;66.60;;;;;;6227376;22;20163;-89
2022/08/13 07:42:41;;;;;;;4.05;3.72;;;23.30;66.30;;;;;;6201998;22;20483;-88
2022/08/13 07:45:09;;;;;;;4.22;3.83;;;23.30;66.20;;;;;;6202132;22;20255;-88
2022/08/13 07:47:34;;;;;;;4.35;3.95;;;23.30;66.50;;;;;;6202343;22;20195;-88
2022/08/13 07:50:01;;;;;;;4.20;3.42;;;23.30;66.70;;;;;;6252267;22;20129;-88
2022/08/13 07:52:27;;;;;;;4.20;3.80;;;23.30;66.70;;;;;;6227903;22;20133;-88
2022/08/13 07:54:55;;;;;;;4.30;3.90;;;23.40;66.70;;;;;;6201966;22;20151;-88
2022/08/13 07:57:23;;;;;;;4.80;3.72;;;23.40;66.80;;;;;;6203078;22;20145;-88
2022/08/13 07:59:54;;;;;;;4.15;3.75;;;23.40;66.60;;;;;;6252534;22;20200;-88
2022/08/13 08:02:20;;;;;;;4.30;3.90;;;23.40;66.60;;;;;;6202708;22;20152;-88
2022/08/13 08:04:46;;;;;;;4.07;3.67;;;23.40;66.50;;;;;;6203816;22;20253;-88
2022/08/13 08:07:14;;;;;;;4.07;3.67;;;23.40;66.70;;;;;;6227155;22;20206;-88
2022/08/13 08:09:40;;;;;;;4.15;3.75;;;23.40;67.00;;;;;;6228324;22;20129;-87
2022/08/13 08:14:46;;;;;;;4.15;3.78;;;23.40;67.00;;;;;;6255519;22;20194;-88
2022/08/13 08:17:12;;;;;;;4.10;3.70;;;23.50;66.90;;;;;;6203586;22;20141;-88
2022/08/13 08:19:41;;;;;;;3.85;3.47;;;23.50;66.90;;;;;;6227758;22;20136;-88
2022/08/13 08:22:11;;;;;;;3.83;3.40;;;23.60;66.50;;;;;;6229134;22;20133;-88
2022/08/13 08:24:37;;;;;;;3.80;3.50;;;23.60;66.50;;;;;;6222771;22;20634;-88
2022/08/13 08:27:09;;;;;;;4.05;3.58;;;23.60;66.50;;;;;;6232948;22;20179;-88
2022/08/13 08:29:35;;;;;;;4.22;3.83;;;23.60;66.70;;;;;;6233872;22;20560;-88
2022/08/13 08:32:10;;;;;;;3.75;3.45;;;23.60;66.60;;;;;;6233392;22;20148;-88
2022/08/13 08:34:37;;;;;;;4.15;3.75;;;23.60;66.80;;;;;;6259113;22;20227;-88
2022/08/13 08:37:08;;;;;;;4.45;4.03;;;23.50;66.90;;;;;;6258927;22;20129;-88
2022/08/13 08:45:00;;;;;;;3.85;3.55;;;23.50;67.30;;;;;;6263313;22;20476;-88
2022/08/13 08:47:28;;;;;;;4.05;3.65;;;23.50;67.40;;;;;;6234545;22;20148;-88
2022/08/13 08:50:01;;;;;;;3.50;3.20;;;23.60;67.00;;;;;;6232312;22;20175;-88
2022/08/13 08:53:19;;;;;;;4.93;3.55;;;23.80;66.80;;;;;;6256914;22;20128;-88
2022/08/13 08:55:25;;;;;;;4.32;3.90;;;23.80;66.50;;;;;;6285511;22;20151;-88
2022/08/13 08:57:54;;;;;;;3.88;3.50;;;23.80;66.70;;;;;;6221477;23;20183;-89
2022/08/13 09:00:20;;;;;;;4.10;3.70;;;23.70;66.90;;;;;;6222322;23;20157;-87
2022/08/13 09:02:50;;;;;;;3.50;3.20;;;23.60;67.20;;;;;;6222294;23;20149;-88
2022/08/13 09:05:17;;;;;;;3.85;3.47;;;23.70;67.30;;;;;;6222362;23;20169;-89
2022/08/13 09:07:47;;;;;;;4.40;4.00;;;23.70;67.20;;;;;;6197575;23;20553;-88
2022/08/13 09:10:18;;;;;;;4.00;3.60;;;23.80;66.90;;;;;;6162200;23;20147;-88
2022/08/13 09:12:46;;;;;;;3.95;3.60;;;23.70;66.90;;;;;;6097388;23;20157;-88
2022/08/13 09:15:17;;;;;;;3.92;3.63;;;23.70;66.70;;;;;;6098524;23;20153;-88
2022/08/13 09:17:45;;;;;;;3.75;3.38;;;23.80;66.70;;;;;;6099165;23;20153;-88
2022/08/13 09:20:22;;;;;;;3.83;3.53;;;23.80;66.70;;;;;;6075827;23;20651;-88
2022/08/13 09:23:08;;;;;;;4.10;3.70;;;23.80;66.70;;;;;;6074756;23;20164;-88
2022/08/13 09:25:41;;;;;;;3.97;3.58;;;23.80;66.70;;;;;;6075691;23;20208;-88
2022/08/13 09:28:09;;;;;;;4.00;3.60;;;23.80;66.90;;;;;;6102696;23;20179;-88
2022/08/13 09:30:40;;;;;;;4.18;3.78;;;23.80;66.80;;;;;;6128559;23;20222;-89
2022/08/13 09:33:06;;;;;;;3.97;3.58;;;23.80;66.80;;;;;;6093037;23;20224;-88
2022/08/13 09:35:37;;;;;;;4.10;3.70;;;23.80;66.70;;;;;;6069431;23;20692;-88
2022/08/13 09:38:08;;;;;;;4.32;3.92;;;23.90;66.30;;;;;;6046345;23;20157;-89
2022/08/13 09:40:38;;;;;;;4.05;3.65;;;23.90;66.40;;;;;;6047240;23;20503;-88
2022/08/13 09:43:12;;;;;;;4.75;4.03;;;23.90;66.50;;;;;;6024404;23;20162;-88
2022/08/13 09:45:47;;;;;;;4.18;3.78;;;23.90;66.70;;;;;;6045640;23;20193;-88
2022/08/13 09:48:13;;;;;;;3.95;3.60;;;23.90;66.80;;;;;;6068748;23;20164;-88
2022/08/13 09:50:42;;;;;;;4.05;3.65;;;23.80;66.80;;;;;;6068540;23;20163;-88
2022/08/13 09:53:08;;;;;;;3.90;3.58;;;23.90;66.70;;;;;;6069371;23;20185;-89
2022/08/13 09:55:40;;;;;;;3.90;3.50;;;23.90;66.40;;;;;;6070056;23;20235;-89
2022/08/13 09:58:10;;;;;;;4.00;3.40;;;23.90;66.50;;;;;;6044905;23;20674;-88
2022/08/13 10:00:47;;;;;;;4.00;3.60;;;23.90;66.30;;;;;;6045462;23;20213;-89
2022/08/13 10:03:17;;;;;;;4.07;3.60;;;24.00;66.10;;;;;;6077952;23;20163;-88
2022/08/13 10:05:45;;;;;;;4.40;4.00;;;24.00;66.00;;;;;;6102381;23;20172;-88
2022/08/13 10:08:18;;;;;;;4.10;3.70;;;23.90;66.40;;;;;;6068612;23;20704;-87
2022/08/13 10:10:48;;;;;;;4.20;3.80;;;24.00;66.20;;;;;;6069149;23;20251;-88
2022/08/13 10:13:13;;;;;;;3.85;3.53;;;23.90;66.30;;;;;;6072597;23;20163;-88
2022/08/13 10:15:42;;;;;;;4.15;3.75;;;24.00;66.10;;;;;;6096587;23;20187;-88
2022/08/13 10:18:12;;;;;;;3.75;3.45;;;24.00;66.40;;;;;;6038877;23;20495;-88
2022/08/13 10:20:45;;;;;;;3.83;3.53;;;24.10;66.20;;;;;;6125058;23;20274;-88
2022/08/13 10:23:15;;;;;;;4.05;3.65;;;24.00;66.20;;;;;;6078384;23;20623;-88
2022/08/13 10:25:44;;;;;;;5.22;3.85;;;24.00;66.30;;;;;;6081830;23;20199;-88
2022/08/13 10:28:28;;;;;;;4.20;3.80;;;24.00;66.30;;;;;;6096050;23;20197;-88
2022/08/13 10:30:59;;;;;;;3.55;3.25;;;24.00;66.00;;;;;;6066382;23;20191;-88
2022/08/13 10:33:25;;;;;;;3.85;3.55;;;24.00;65.90;;;;;;6020471;23;20153;-88
2022/08/13 10:35:55;;;;;;;4.00;3.60;;;24.00;65.90;;;;;;6019162;23;20208;-88
2022/08/13 10:38:26;;;;;;;4.10;3.70;;;24.00;65.90;;;;;;5997368;23;20337;-88
2022/08/13 10:40:54;;;;;;;4.20;3.80;;;24.00;66.10;;;;;;6070920;23;20156;-89
2022/08/13 10:43:21;;;;;;;4.10;3.58;;;24.10;65.90;;;;;;6118262;23;20156;-88
2022/08/13 10:46:01;;;;;;;4.20;3.80;;;24.10;65.70;;;;;;6106963;23;20190;-88
2022/08/13 10:48:27;;;;;;;3.63;3.33;;;24.10;65.70;;;;;;6131491;23;20154;-88
2022/08/13 10:50:54;;;;;;;4.13;3.72;;;24.20;65.60;;;;;;6106669;23;20157;-88
2022/08/13 10:56:08;;;;;;;4.18;3.78;;;24.00;66.90;;;;;;6113855;23;20156;-89
2022/08/13 10:58:36;;;;;;;4.18;3.60;;;23.90;66.30;;;;;;6116120;23;20190;-88
2022/08/13 11:01:40;;;;;;;4.07;3.67;;;23.90;66.50;;;;;;6150030;22;20156;-88
2022/08/13 11:04:06;;;;;;;3.72;3.42;;;24.00;66.40;;;;;;6205987;22;20610;-88
2022/08/13 11:06:34;;;;;;;4.00;3.60;;;24.00;66.10;;;;;;6226149;22;20172;-88
2022/08/13 11:09:00;;;;;;;4.25;3.30;;;24.00;66.10;;;;;;6250855;22;20159;-87
2022/08/13 11:11:26;;;;;;;4.10;3.70;;;24.00;66.20;;;;;;6225664;22;20480;-87
2022/08/13 11:13:52;;;;;;;4.00;3.60;;;24.00;66.40;;;;;;6228444;22;20487;-87
2022/08/13 11:19:15;;;;;;;3.88;3.58;;;24.00;66.00;;;;;;6236632;22;20534;-87
2022/08/13 11:21:43;;;;;;;3.92;3.53;;;24.10;66.50;;;;;;6229068;22;20141;-87
2022/08/13 11:24:09;;;;;;;4.50;4.00;;;24.10;66.00;;;;;;6235469;22;20188;-87
2022/08/13 11:26:35;;;;;;;4.10;3.70;;;24.10;66.00;;;;;;6256007;22;20284;-88
2022/08/13 11:29:00;;;;;;;4.63;3.97;;;24.10;66.00;;;;;;6281683;22;20235;-87
2022/08/13 11:31:26;;;;;;;4.22;3.83;;;24.10;66.00;;;;;;6256527;22;20132;-87
2022/08/13 11:33:57;;;;;;;4.30;3.90;;;24.10;66.50;;;;;;6230559;22;20144;-87
2022/08/13 11:36:23;;;;;;;4.38;3.97;;;24.10;66.20;;;;;;6232060;22;20140;-87
2022/08/13 11:38:49;;;;;;;4.03;3.63;;;24.10;66.30;;;;;;6244472;23;20153;-87
2022/08/13 11:41:14;;;;;;;4.15;3.75;;;24.10;66.40;;;;;;6219489;23;20188;-87
2022/08/13 11:44:08;;;;;;;4.28;3.75;;;24.10;66.10;;;;;;6195052;23;20160;-89
2022/08/13 11:46:45;;;;;;;4.30;3.90;;;24.20;66.70;;;;;;6100276;23;20279;-88
2022/08/13 11:49:21;;;;;;;3.92;3.63;;;24.10;65.70;;;;;;6038033;23;20250;-89
2022/08/13 11:51:58;;;;;;;4.10;3.70;;;24.20;65.30;;;;;;5899339;24;20157;-89
2022/08/13 11:54:24;;;;;;;4.15;3.70;;;24.20;65.20;;;;;;5875525;24;20206;-89
2022/08/13 11:56:50;;;;;;;4.00;3.60;;;24.20;65.20;;;;;;5877199;24;20165;-88
2022/08/13 11:59:18;;;;;;;3.90;3.50;;;24.20;64.90;;;;;;5898574;24;20162;-89
2022/08/13 12:01:47;;;;;;;4.25;3.85;;;24.30;64.80;;;;;;5899575;24;20630;-88
2022/08/13 12:04:24;;;;;;;4.18;3.78;;;24.30;64.70;;;;;;5875531;24;20165;-89
2022/08/13 12:06:53;;;;;;;4.40;4.00;;;24.30;64.70;;;;;;5875429;24;20677;-88
2022/08/13 12:09:21;;;;;;;4.20;3.80;;;24.30;64.60;;;;;;5907824;24;20157;-89
2022/08/13 12:11:49;;;;;;;4.10;3.70;;;24.40;64.70;;;;;;5925194;24;20156;-89
2022/08/13 12:14:17;;;;;;;4.88;4.10;;;24.30;64.70;;;;;;5931801;24;20156;-89
2022/08/13 12:16:43;;;;;;;4.30;3.88;;;24.30;64.50;;;;;;5926991;24;20152;-88
2022/08/13 12:19:09;;;;;;;4.30;3.90;;;24.40;64.40;;;;;;5936155;23;20185;-89
2022/08/13 12:21:37;;;;;;;4.25;3.85;;;24.30;64.30;;;;;;6014424;23;20163;-88
2022/08/13 12:24:05;;;;;;;4.20;3.80;;;24.40;65.00;;;;;;6102698;23;20199;-89
2022/08/13 12:26:34;;;;;;;3.88;3.58;;;24.40;64.10;;;;;;6101646;23;20194;-89
2022/08/13 12:29:00;;;;;;;4.00;3.60;;;24.40;63.90;;;;;;6110544;23;20146;-89
2022/08/13 12:31:26;;;;;;;3.47;3.17;;;24.50;63.60;;;;;;6140536;23;20253;-89
2022/08/13 12:33:56;;;;;;;3.60;3.30;;;24.50;63.40;;;;;;6190095;23;20250;-89
2022/08/13 12:36:26;;;;;;;3.65;3.33;;;24.50;63.20;;;;;;6165682;23;20150;-89
2022/08/13 12:38:52;;;;;;;4.13;3.72;;;24.50;63.00;;;;;;6141982;23;20160;-89
2022/08/13 12:41:18;;;;;;;3.88;3.47;;;24.50;63.00;;;;;;6140241;23;20179;-89
2022/08/13 12:43:46;;;;;;;3.92;3.60;;;24.60;62.70;;;;;;6165560;23;20138;-88
2022/08/13 12:46:14;;;;;;;3.80;3.50;;;24.60;62.70;;;;;;6165452;23;20257;-89
2022/08/13 12:48:40;;;;;;;3.92;3.60;;;24.50;62.50;;;;;;6212428;23;20237;-89
2022/08/13 12:51:08;;;;;;;3.65;3.35;;;24.50;62.50;;;;;;6220296;23;20190;-89
2022/08/13 12:53:35;;;;;;;4.03;3.70;;;24.50;62.60;;;;;;6196175;23;20153;-89
2022/08/13 12:56:06;;;;;;;4.10;3.75;;;24.60;62.30;;;;;;6195155;23;20541;-89
2022/08/13 12:58:36;;;;;;;3.97;3.60;;;24.50;62.30;;;;;;6220838;23;20163;-88
2022/08/13 13:01:03;;;;;;;3.60;3.30;;;24.50;62.20;;;;;;6195741;23;20599;-89
2022/08/13 13:03:31;;;;;;;4.05;3.65;;;24.60;62.30;;;;;;6194968;23;20162;-89
2022/08/13 13:06:00;;;;;;;3.67;3.38;;;24.60;61.90;;;;;;6154258;23;20224;-89
2022/08/13 13:08:28;;;;;;;3.70;3.40;;;24.60;62.80;;;;;;6105901;23;20230;-88
2022/08/13 13:10:55;;;;;;;3.70;3.40;;;24.60;61.80;;;;;;6130021;23;20152;-88
2022/08/13 13:13:25;;;;;;;4.13;3.72;;;24.60;61.60;;;;;;6130859;23;20151;-88
2022/08/13 13:15:53;;;;;;;3.38;3.08;;;24.60;61.60;;;;;;6130787;23;20195;-88
2022/08/13 13:18:22;;;;;;;3.60;3.30;;;24.60;61.40;;;;;;6106874;23;20235;-88
2022/08/13 13:20:49;;;;;;;4.30;3.90;;;24.60;61.10;;;;;;6189801;23;20640;-88
2022/08/13 13:23:18;;;;;;;4.63;4.20;;;24.60;61.40;;;;;;6189638;23;20205;-88
2022/08/13 13:25:44;;;;;;;3.50;3.20;;;24.60;61.20;;;;;;6189561;23;20202;-88